Time;durP1;ratioP1;P1;durP2;ratioP2;P2;SDS_P1;SDS_P2;PMS_P1;PMS_P2;Temp;Humidity;BMP_temperature;BMP_pressure;BME280_temperature;BME280_humidity;BME280_pressure;Samples;Min_cycle;Max_cycle;Signal;HPM_P1;HPM_P2
2021/08/25 00:01:47;;;;;;;10.30;6.60;;;11.20;99.90;;;;;;5011510;28;20112;-79
2021/08/25 00:04:13;;;;;;;13.07;7.25;;;11.10;99.90;;;;;;5038387;28;20037;-78
2021/08/25 00:06:38;;;;;;;12.77;8.23;;;11.20;99.90;;;;;;5031919;28;20025;-79
2021/08/25 00:09:04;;;;;;;11.70;8.38;;;11.10;99.90;;;;;;5014112;28;20056;-79
2021/08/25 00:11:30;;;;;;;12.15;7.10;;;11.00;99.90;;;;;;5032937;28;20032;-79
2021/08/25 00:13:56;;;;;;;11.93;7.28;;;11.00;99.90;;;;;;5023125;28;20032;-78
2021/08/25 00:16:22;;;;;;;9.52;7.50;;;11.00;99.90;;;;;;4999737;28;20025;-79
2021/08/25 00:18:48;;;;;;;10.23;7.30;;;10.90;99.90;;;;;;5033082;28;20479;-79
2021/08/25 00:21:13;;;;;;;9.93;7.18;;;10.90;99.90;;;;;;5032367;28;20090;-79
2021/08/25 00:23:39;;;;;;;12.18;7.05;;;10.90;99.90;;;;;;5024097;28;20024;-79
2021/08/25 00:26:05;;;;;;;10.45;7.15;;;10.80;99.90;;;;;;5014456;28;20063;-79
2021/08/25 00:28:30;;;;;;;9.98;6.95;;;10.80;99.90;;;;;;5013266;28;20064;-79
2021/08/25 00:30:56;;;;;;;10.93;7.75;;;10.80;99.90;;;;;;5038064;28;20102;-78
2021/08/25 00:33:21;;;;;;;12.40;7.50;;;10.80;99.90;;;;;;5007064;28;20037;-79
2021/08/25 00:35:47;;;;;;;13.32;7.53;;;10.80;99.90;;;;;;5038297;28;20080;-79
2021/08/25 00:38:13;;;;;;;10.32;7.57;;;10.80;99.90;;;;;;5048485;28;20039;-79
2021/08/25 00:40:38;;;;;;;8.57;7.15;;;10.70;99.90;;;;;;5032277;28;20445;-79
2021/08/25 00:43:08;;;;;;;10.30;7.05;;;10.70;99.90;;;;;;5046446;28;20514;-79
2021/08/25 00:45:41;;;;;;;11.85;7.15;;;10.70;99.90;;;;;;5014176;28;20033;-78
2021/08/25 00:48:07;;;;;;;8.65;6.28;;;10.60;99.90;;;;;;4997772;28;20060;-79
2021/08/25 00:50:33;;;;;;;8.43;5.95;;;10.60;99.90;;;;;;5004062;28;20076;-79
2021/08/25 00:52:59;;;;;;;8.82;6.53;;;10.60;99.90;;;;;;5010658;28;20128;-79
2021/08/25 00:55:25;;;;;;;9.73;6.57;;;10.50;99.90;;;;;;5014547;28;20112;-79
2021/08/25 00:57:51;;;;;;;9.07;6.18;;;10.50;99.90;;;;;;4999965;28;20041;-81
2021/08/25 01:00:17;;;;;;;14.43;7.47;;;10.50;99.90;;;;;;5016026;28;20136;-80
2021/08/25 01:02:55;;;;;;;9.20;7.10;;;10.50;99.90;;;;;;5019152;28;20037;-81
2021/08/25 01:05:22;;;;;;;10.32;6.75;;;10.40;99.90;;;;;;5022901;28;20029;-81
2021/08/25 01:07:48;;;;;;;10.88;6.70;;;10.40;99.90;;;;;;5036677;28;20025;-81
2021/08/25 01:10:26;;;;;;;10.75;7.10;;;10.40;99.90;;;;;;5033408;28;21386;-81
2021/08/25 01:12:59;;;;;;;9.32;6.82;;;10.40;99.90;;;;;;5038967;28;20441;-81
2021/08/25 01:15:36;;;;;;;9.45;6.85;;;10.30;99.90;;;;;;5000842;28;20037;-80
2021/08/25 01:18:04;;;;;;;10.43;6.72;;;10.30;99.90;;;;;;5013885;28;20550;-81
2021/08/25 01:20:31;;;;;;;9.27;6.60;;;10.20;99.90;;;;;;5025489;28;20036;-81
2021/08/25 01:22:58;;;;;;;9.57;7.05;;;10.20;99.90;;;;;;5015429;28;20397;-81
2021/08/25 01:25:29;;;;;;;8.35;6.20;;;10.20;99.90;;;;;;5032324;28;20487;-81
2021/08/25 01:28:01;;;;;;;8.60;5.80;;;10.20;99.90;;;;;;5019948;28;20036;-80
2021/08/25 01:30:30;;;;;;;7.00;5.72;;;10.20;99.90;;;;;;5042045;28;20080;-81
2021/08/25 01:32:59;;;;;;;7.75;5.47;;;10.20;99.90;;;;;;5021821;28;20075;-81
2021/08/25 01:35:38;;;;;;;7.95;5.43;;;10.20;99.90;;;;;;5032563;28;20034;-80
2021/08/25 01:38:06;;;;;;;6.68;5.32;;;10.20;99.90;;;;;;5028228;28;20033;-81
2021/08/25 01:40:35;;;;;;;8.32;5.88;;;10.10;99.90;;;;;;5023756;28;20029;-80
2021/08/25 01:43:02;;;;;;;9.25;5.35;;;10.10;99.90;;;;;;5045756;28;20044;-81
2021/08/25 01:45:28;;;;;;;11.27;6.45;;;10.00;99.90;;;;;;5042553;28;20044;-81
2021/08/25 01:47:54;;;;;;;8.43;6.35;;;10.00;99.90;;;;;;5040124;28;20026;-81
2021/08/25 01:50:20;;;;;;;9.30;6.43;;;9.90;99.90;;;;;;5018321;28;20118;-81
2021/08/25 01:52:46;;;;;;;8.75;6.10;;;9.90;99.90;;;;;;5048663;28;20037;-81
2021/08/25 01:55:11;;;;;;;8.10;6.07;;;9.90;99.90;;;;;;5023019;28;20082;-81
2021/08/25 01:57:37;;;;;;;8.52;6.22;;;9.90;99.90;;;;;;5027416;28;20037;-80
2021/08/25 02:00:04;;;;;;;6.15;5.07;;;9.90;99.90;;;;;;5032638;28;20041;-80
2021/08/25 02:02:31;;;;;;;8.63;6.03;;;9.90;99.90;;;;;;5028854;28;20040;-81
2021/08/25 02:04:57;;;;;;;8.55;6.22;;;9.90;99.90;;;;;;5012685;28;20033;-80
2021/08/25 02:07:22;;;;;;;7.97;5.93;;;9.80;99.90;;;;;;5002908;28;20123;-80
2021/08/25 02:09:48;;;;;;;8.82;6.45;;;9.80;99.90;;;;;;5013660;28;20033;-81
2021/08/25 02:12:13;;;;;;;7.78;6.15;;;9.80;99.90;;;;;;5014285;28;20042;-81
2021/08/25 02:14:39;;;;;;;9.82;6.72;;;9.80;99.90;;;;;;5017407;28;20121;-81
2021/08/25 02:17:06;;;;;;;8.60;6.20;;;9.80;99.90;;;;;;5027090;28;20033;-80
2021/08/25 02:19:33;;;;;;;9.82;6.30;;;9.70;99.90;;;;;;5013262;28;20439;-80
2021/08/25 02:21:59;;;;;;;7.70;5.43;;;9.70;99.90;;;;;;5034982;28;20078;-80
2021/08/25 02:24:25;;;;;;;10.30;7.03;;;9.70;99.90;;;;;;5013765;28;20509;-80
2021/08/25 02:26:50;;;;;;;10.85;6.15;;;9.70;99.90;;;;;;5045903;28;20029;-81
2021/08/25 02:29:16;;;;;;;7.55;5.30;;;9.70;99.90;;;;;;5018557;28;20068;-80
2021/08/25 02:31:42;;;;;;;7.65;5.25;;;9.70;99.90;;;;;;5018195;28;20071;-80
2021/08/25 02:34:08;;;;;;;8.35;5.72;;;9.70;99.90;;;;;;5025194;28;20032;-79
2021/08/25 02:36:34;;;;;;;6.25;5.18;;;9.70;99.90;;;;;;5018910;28;20418;-79
2021/08/25 02:39:00;;;;;;;7.10;5.18;;;9.70;99.90;;;;;;5032745;28;20435;-79
2021/08/25 02:41:26;;;;;;;7.22;5.70;;;9.70;99.90;;;;;;4998900;28;20025;-80
2021/08/25 02:43:52;;;;;;;7.93;5.65;;;9.70;99.90;;;;;;4998219;28;20120;-80
2021/08/25 02:46:19;;;;;;;6.50;5.20;;;9.60;99.90;;;;;;5031765;28;20029;-79
2021/08/25 02:48:44;;;;;;;8.93;6.15;;;9.60;99.90;;;;;;5029009;28;20530;-79
2021/08/25 02:51:10;;;;;;;7.00;5.20;;;9.60;99.90;;;;;;5044401;28;20033;-79
2021/08/25 02:53:36;;;;;;;8.05;5.85;;;9.60;99.90;;;;;;5018812;28;20048;-80
2021/08/25 02:56:02;;;;;;;6.80;5.32;;;9.60;99.90;;;;;;5051487;28;20025;-79
2021/08/25 02:58:27;;;;;;;6.82;5.25;;;9.50;99.90;;;;;;5026149;28;20479;-79
2021/08/25 03:00:54;;;;;;;7.72;5.45;;;9.50;99.90;;;;;;4997121;28;20101;-79
2021/08/25 03:03:21;;;;;;;5.72;4.72;;;9.50;99.90;;;;;;5026260;28;20045;-80
2021/08/25 03:05:46;;;;;;;5.35;4.82;;;9.40;99.90;;;;;;5024043;28;20041;-79
2021/08/25 03:08:12;;;;;;;7.00;4.85;;;9.40;99.90;;;;;;5010199;28;20037;-79
2021/08/25 03:10:38;;;;;;;6.65;4.35;;;9.40;99.90;;;;;;5033971;28;20116;-79
2021/08/25 03:13:04;;;;;;;7.00;4.97;;;9.50;99.90;;;;;;5013866;28;20040;-80
2021/08/25 03:15:29;;;;;;;7.45;4.63;;;9.40;99.90;;;;;;5028959;28;20029;-79
2021/08/25 03:17:55;;;;;;;6.18;5.25;;;9.40;99.90;;;;;;5007267;28;20499;-79
2021/08/25 03:20:21;;;;;;;6.80;5.38;;;9.40;99.90;;;;;;5063859;28;20094;-80
2021/08/25 03:22:46;;;;;;;6.63;4.97;;;9.40;99.90;;;;;;5016895;28;20032;-79
2021/08/25 03:25:13;;;;;;;8.23;5.60;;;9.40;99.90;;;;;;5052663;28;20029;-80
2021/08/25 03:27:39;;;;;;;6.97;5.13;;;9.40;99.90;;;;;;5025342;28;20029;-80
2021/08/25 03:30:06;;;;;;;5.95;4.80;;;9.30;99.90;;;;;;5025624;28;20230;-80
2021/08/25 03:32:32;;;;;;;6.13;4.85;;;9.30;99.90;;;;;;5051867;28;20026;-80
2021/08/25 03:34:57;;;;;;;6.50;5.28;;;9.30;99.90;;;;;;5017257;28;20045;-80
2021/08/25 03:37:23;;;;;;;7.70;5.30;;;9.30;99.90;;;;;;5022877;28;20120;-80
2021/08/25 03:39:49;;;;;;;7.35;4.72;;;9.30;99.90;;;;;;5027367;28;20022;-80
2021/08/25 03:42:15;;;;;;;6.78;4.97;;;9.30;99.90;;;;;;5031223;28;20028;-80
2021/08/25 03:44:41;;;;;;;7.35;5.32;;;9.30;99.90;;;;;;5022038;28;20055;-80
2021/08/25 03:47:07;;;;;;;6.28;5.10;;;9.30;99.90;;;;;;5033267;28;20044;-80
2021/08/25 03:49:34;;;;;;;6.85;4.90;;;9.30;99.90;;;;;;5053037;28;20159;-80
2021/08/25 03:52:00;;;;;;;5.43;4.28;;;9.20;99.90;;;;;;5029777;28;20025;-80
2021/08/25 03:54:27;;;;;;;9.75;5.82;;;9.20;99.90;;;;;;5024106;28;20064;-80
2021/08/25 03:56:54;;;;;;;9.02;5.85;;;9.20;99.90;;;;;;5018849;28;20079;-80
2021/08/25 03:59:20;;;;;;;7.63;5.15;;;9.00;99.90;;;;;;5015095;28;20038;-80
2021/08/25 04:01:46;;;;;;;7.05;5.10;;;9.00;99.90;;;;;;5031963;28;20068;-80
2021/08/25 04:04:12;;;;;;;6.43;5.22;;;9.00;99.90;;;;;;5015231;28;20029;-80
2021/08/25 04:06:38;;;;;;;6.10;4.90;;;9.00;99.90;;;;;;5016432;28;20705;-80
2021/08/25 04:09:05;;;;;;;9.48;5.55;;;9.00;99.90;;;;;;5047006;28;20041;-80
2021/08/25 04:11:33;;;;;;;7.97;5.85;;;8.90;99.90;;;;;;5035482;28;20498;-80
2021/08/25 04:14:00;;;;;;;7.15;5.22;;;8.90;99.90;;;;;;5038275;28;20030;-80
2021/08/25 04:16:27;;;;;;;6.90;5.78;;;8.90;99.90;;;;;;5051961;28;20039;-80
2021/08/25 04:18:53;;;;;;;6.32;5.25;;;8.90;99.90;;;;;;5050320;28;20061;-80
2021/08/25 04:21:19;;;;;;;6.78;5.65;;;8.80;99.90;;;;;;5026830;28;20619;-80
2021/08/25 04:23:45;;;;;;;6.82;5.53;;;8.80;99.90;;;;;;5037126;28;20029;-80
2021/08/25 04:26:11;;;;;;;7.85;6.03;;;8.80;99.90;;;;;;5049534;28;20025;-80
2021/08/25 04:28:37;;;;;;;7.25;5.88;;;8.90;99.90;;;;;;5055203;28;20030;-80
2021/08/25 04:31:02;;;;;;;6.78;5.55;;;8.90;99.90;;;;;;5036612;28;20037;-80
2021/08/25 04:33:28;;;;;;;8.43;6.38;;;9.00;99.90;;;;;;5052204;28;20111;-80
2021/08/25 04:35:54;;;;;;;8.30;6.28;;;9.00;99.90;;;;;;5051602;28;20033;-80
2021/08/25 04:38:20;;;;;;;7.85;6.05;;;9.00;99.90;;;;;;5034093;28;20037;-80
2021/08/25 04:40:45;;;;;;;8.80;6.13;;;9.10;99.90;;;;;;5012681;28;20074;-80
2021/08/25 04:43:11;;;;;;;7.70;6.15;;;9.10;99.90;;;;;;5032654;28;20033;-80
2021/08/25 04:45:38;;;;;;;7.65;5.75;;;9.10;99.90;;;;;;5049073;28;20025;-80
2021/08/25 04:48:04;;;;;;;7.55;5.88;;;9.10;99.90;;;;;;5042462;28;20064;-80
2021/08/25 04:50:30;;;;;;;7.80;5.78;;;9.10;99.90;;;;;;5031550;28;20044;-80
2021/08/25 04:52:55;;;;;;;10.07;6.40;;;9.20;99.90;;;;;;5031837;28;20033;-80
2021/08/25 04:55:21;;;;;;;10.25;6.20;;;9.10;99.90;;;;;;5034199;28;20487;-80
2021/08/25 04:57:47;;;;;;;8.82;6.22;;;9.00;99.90;;;;;;5004234;28;20033;-80
2021/08/25 05:00:13;;;;;;;7.40;6.25;;;9.00;99.90;;;;;;5018229;28;20060;-80
2021/08/25 05:02:38;;;;;;;8.40;6.32;;;9.10;99.90;;;;;;5031792;28;20101;-80
2021/08/25 05:05:04;;;;;;;6.85;5.80;;;9.00;99.90;;;;;;5038192;28;20072;-80
2021/08/25 05:07:30;;;;;;;6.40;5.63;;;9.10;99.90;;;;;;5033224;28;20029;-80
2021/08/25 05:09:56;;;;;;;7.10;5.50;;;9.10;99.90;;;;;;5025167;28;20041;-80
2021/08/25 05:12:21;;;;;;;5.30;4.57;;;9.10;99.90;;;;;;5019736;28;20029;-80
2021/08/25 05:14:47;;;;;;;14.07;7.93;;;9.10;99.90;;;;;;5030378;28;20080;-80
2021/08/25 05:17:13;;;;;;;12.48;7.70;;;9.10;99.90;;;;;;5030843;28;20044;-80
2021/08/25 05:19:39;;;;;;;11.77;7.18;;;9.20;99.90;;;;;;5032847;28;20068;-80
2021/08/25 05:22:06;;;;;;;11.63;7.65;;;9.30;99.90;;;;;;5011553;28;20030;-80
2021/08/25 05:24:33;;;;;;;8.93;6.43;;;9.40;99.90;;;;;;5049333;28;20550;-80
2021/08/25 05:26:59;;;;;;;10.80;5.78;;;9.50;99.90;;;;;;5046876;28;20079;-80
2021/08/25 05:29:24;;;;;;;6.78;5.65;;;9.50;99.90;;;;;;5012621;28;20026;-80
2021/08/25 05:31:50;;;;;;;8.60;5.10;;;9.60;99.90;;;;;;5047145;28;20054;-80
2021/08/25 05:34:16;;;;;;;6.53;4.97;;;9.70;99.90;;;;;;5046267;28;20033;-80
2021/08/25 05:36:42;;;;;;;6.22;5.07;;;9.70;99.90;;;;;;5024604;28;20032;-80
2021/08/25 05:39:07;;;;;;;6.03;4.53;;;9.80;99.90;;;;;;5034570;28;20033;-79
2021/08/25 05:41:33;;;;;;;4.53;3.78;;;9.90;99.90;;;;;;5020451;28;20053;-80
2021/08/25 05:44:03;;;;;;;4.60;3.67;;;10.00;99.90;;;;;;5033046;28;20459;-80
2021/08/25 05:46:32;;;;;;;4.38;3.53;;;10.00;99.90;;;;;;5027279;28;20032;-80
2021/08/25 05:48:59;;;;;;;3.97;3.42;;;10.10;99.90;;;;;;5034465;28;20037;-80
2021/08/25 05:51:25;;;;;;;4.65;3.80;;;10.20;99.90;;;;;;5021600;28;20037;-80
2021/08/25 05:53:52;;;;;;;4.60;3.67;;;10.20;99.90;;;;;;5038058;28;20041;-80
2021/08/25 05:56:18;;;;;;;4.32;3.67;;;10.30;99.90;;;;;;5028838;28;20037;-79
2021/08/25 05:58:43;;;;;;;4.68;4.00;;;10.40;99.90;;;;;;5038309;23;20041;-80
2021/08/25 06:01:15;;;;;;;13.02;4.13;;;10.50;99.90;;;;;;5030205;28;20104;-81
2021/08/25 06:03:41;;;;;;;5.35;3.85;;;10.40;99.90;;;;;;5024149;28;20021;-80
2021/08/25 06:06:07;;;;;;;9.82;4.60;;;10.10;99.90;;;;;;5000646;28;20033;-79
2021/08/25 06:08:33;;;;;;;5.55;4.85;;;9.90;99.90;;;;;;5050672;28;20060;-81
2021/08/25 06:10:59;;;;;;;7.75;5.30;;;9.80;99.90;;;;;;4992897;28;20071;-79
2021/08/25 06:13:24;;;;;;;6.20;5.15;;;9.70;99.90;;;;;;5023108;28;20024;-80
2021/08/25 06:15:50;;;;;;;6.53;5.28;;;9.80;99.90;;;;;;5021758;28;20030;-79
2021/08/25 06:18:16;;;;;;;7.85;6.00;;;10.00;99.90;;;;;;5049409;28;20028;-80
2021/08/25 06:20:41;;;;;;;7.70;5.82;;;10.10;99.90;;;;;;5002373;28;20021;-81
2021/08/25 06:23:07;;;;;;;6.32;5.32;;;10.20;99.90;;;;;;5009229;28;20037;-80
2021/08/25 06:25:33;;;;;;;7.15;5.38;;;10.40;99.90;;;;;;5008880;28;20484;-80
2021/08/25 06:28:01;;;;;;;6.55;5.28;;;10.50;99.90;;;;;;5018614;28;20041;-80
2021/08/25 06:30:28;;;;;;;8.27;6.00;;;10.70;99.90;;;;;;5036654;28;20037;-80
2021/08/25 06:32:54;;;;;;;8.27;6.03;;;10.90;99.90;;;;;;5015237;28;20037;-80
2021/08/25 06:35:20;;;;;;;7.38;5.93;;;11.10;99.90;;;;;;5023337;28;20079;-80
2021/08/25 06:37:47;;;;;;;8.98;6.43;;;11.30;99.90;;;;;;5024207;28;20029;-79
2021/08/25 06:40:13;;;;;;;11.13;7.10;;;11.60;99.90;;;;;;5017902;28;20642;-80
2021/08/25 06:42:39;;;;;;;8.95;7.15;;;11.70;99.90;;;;;;5032272;28;20028;-80
2021/08/25 06:45:06;;;;;;;7.07;5.85;;;11.90;99.90;;;;;;5027021;28;20078;-80
2021/08/25 06:47:32;;;;;;;9.35;6.53;;;12.00;99.90;;;;;;5009751;28;20037;-81
2021/08/25 06:49:58;;;;;;;7.97;6.22;;;12.30;99.90;;;;;;5031282;28;20032;-80
2021/08/25 06:52:23;;;;;;;7.43;5.70;;;12.30;99.90;;;;;;5009294;28;20033;-81
2021/08/25 06:54:49;;;;;;;8.45;6.40;;;12.30;99.90;;;;;;5017973;28;20041;-80
2021/08/25 06:57:15;;;;;;;7.80;6.15;;;12.30;99.90;;;;;;5019656;28;20449;-80
2021/08/25 06:59:40;;;;;;;7.32;5.50;;;12.30;99.90;;;;;;4979976;28;20022;-80
2021/08/25 07:02:06;;;;;;;9.23;6.32;;;12.40;99.90;;;;;;5001382;28;20040;-80
2021/08/25 07:04:32;;;;;;;8.02;5.88;;;12.30;99.90;;;;;;5009925;28;20108;-81
2021/08/25 07:06:57;;;;;;;12.05;7.28;;;12.30;99.90;;;;;;5017800;28;20037;-80
2021/08/25 07:09:23;;;;;;;7.85;5.80;;;12.70;99.90;;;;;;5012870;28;20036;-80
2021/08/25 07:11:49;;;;;;;4.97;4.43;;;13.20;99.90;;;;;;5024227;28;20044;-81
2021/08/25 07:14:15;;;;;;;6.57;4.93;;;13.90;99.90;;;;;;5025666;28;20033;-81
2021/08/25 07:16:40;;;;;;;6.43;4.28;;;14.40;99.90;;;;;;5026536;28;20033;-81
2021/08/25 07:19:06;;;;;;;4.60;3.90;;;14.90;99.90;;;;;;5025320;28;20438;-80
2021/08/25 07:21:33;;;;;;;5.75;4.68;;;15.40;99.90;;;;;;5031149;28;20024;-81
2021/08/25 07:23:59;;;;;;;6.32;4.50;;;15.80;99.90;;;;;;5013370;28;20048;-81
2021/08/25 07:26:24;;;;;;;5.15;3.90;;;15.90;99.90;;;;;;5033011;28;20125;-81
2021/08/25 07:28:50;;;;;;;3.80;3.08;;;16.20;99.90;;;;;;4989577;28;20120;-81
2021/08/25 07:31:16;;;;;;;4.35;3.67;;;16.50;99.90;;;;;;5034641;28;20037;-81
2021/08/25 07:33:42;;;;;;;3.42;3.10;;;16.70;99.90;;;;;;4995788;28;20044;-81
2021/08/25 07:36:09;;;;;;;5.05;4.13;;;16.90;99.90;;;;;;5018191;28;20033;-80
2021/08/25 07:38:35;;;;;;;3.70;3.17;;;17.00;99.90;;;;;;5027683;28;20052;-81
2021/08/25 07:41:01;;;;;;;4.50;3.22;;;17.10;99.90;;;;;;5015242;28;20563;-81
2021/08/25 07:43:27;;;;;;;5.53;4.35;;;17.30;99.90;;;;;;5029142;28;20094;-81
2021/08/25 07:45:53;;;;;;;5.45;4.10;;;17.50;99.90;;;;;;5007558;28;20476;-81
2021/08/25 07:48:19;;;;;;;5.82;4.55;;;17.70;99.90;;;;;;5021202;28;20041;-81
2021/08/25 07:50:44;;;;;;;4.70;4.18;;;17.70;99.90;;;;;;5012813;28;20059;-80
2021/08/25 07:53:10;;;;;;;7.63;4.03;;;17.60;99.90;;;;;;5027077;28;20075;-80
2021/08/25 07:55:36;;;;;;;4.40;4.00;;;17.50;99.90;;;;;;5010955;28;20025;-81
2021/08/25 07:58:02;;;;;;;5.40;3.45;;;17.50;99.90;;;;;;5007212;28;20025;-80
2021/08/25 08:00:28;;;;;;;5.78;4.50;;;17.50;99.90;;;;;;5009570;28;20036;-80
2021/08/25 08:02:54;;;;;;;9.25;4.70;;;17.50;99.90;;;;;;5028149;28;20029;-81
2021/08/25 08:05:19;;;;;;;6.53;4.25;;;17.40;99.90;;;;;;5021311;28;20029;-81
2021/08/25 08:07:45;;;;;;;5.88;4.47;;;17.30;99.90;;;;;;5011043;28;20033;-80
2021/08/25 08:10:12;;;;;;;6.28;3.92;;;17.40;99.90;;;;;;5012489;28;20036;-81
2021/08/25 08:12:37;;;;;;;6.50;4.57;;;17.50;99.90;;;;;;4996995;28;20033;-81
2021/08/25 08:15:10;;;;;;;4.72;4.03;;;17.60;99.90;;;;;;4997396;28;20384;-81
2021/08/25 08:17:35;;;;;;;4.63;3.60;;;17.70;99.90;;;;;;5028688;28;20025;-81
2021/08/25 08:20:01;;;;;;;6.90;4.63;;;17.80;99.90;;;;;;5010947;28;20040;-81
2021/08/25 08:22:27;;;;;;;5.13;3.67;;;17.80;99.90;;;;;;5005510;28;20593;-81
2021/08/25 08:24:53;;;;;;;4.75;3.88;;;17.90;99.90;;;;;;5012743;28;20031;-81
2021/08/25 08:27:18;;;;;;;5.75;4.35;;;17.90;99.90;;;;;;5016416;28;20056;-80
2021/08/25 08:29:44;;;;;;;4.93;3.25;;;17.80;99.90;;;;;;5022166;28;20135;-81
2021/08/25 08:32:10;;;;;;;6.30;4.30;;;17.70;99.90;;;;;;5022334;28;20032;-80
2021/08/25 08:34:36;;;;;;;6.03;4.22;;;17.70;99.90;;;;;;5009296;28;20480;-80
2021/08/25 08:37:03;;;;;;;5.75;3.55;;;17.70;99.90;;;;;;5024594;28;20021;-80
2021/08/25 08:39:29;;;;;;;5.78;3.47;;;17.70;99.90;;;;;;5008606;28;20048;-81
2021/08/25 08:41:54;;;;;;;7.53;3.40;;;17.70;99.90;;;;;;5027673;28;20025;-84
2021/08/25 08:44:20;;;;;;;5.60;3.10;;;17.80;99.90;;;;;;5002098;28;20587;-83
2021/08/25 08:46:52;;;;;;;5.97;3.53;;;17.90;99.90;;;;;;5020161;28;20057;-84
2021/08/25 08:49:18;;;;;;;9.52;3.30;;;18.10;99.90;;;;;;5014741;28;20037;-86
2021/08/25 08:51:44;;;;;;;5.90;3.08;;;18.10;99.90;;;;;;5051496;28;20021;-84
2021/08/25 08:54:11;;;;;;;7.05;3.10;;;18.10;99.90;;;;;;4992389;28;20507;-83
2021/08/25 08:56:37;;;;;;;5.82;2.85;;;18.10;99.90;;;;;;5014480;28;20029;-84
2021/08/25 08:59:03;;;;;;;7.93;3.20;;;17.90;99.90;;;;;;5010610;28;20028;-84
2021/08/25 09:01:30;;;;;;;6.60;3.75;;;17.90;99.90;;;;;;4979691;28;20037;-85
2021/08/25 09:03:56;;;;;;;5.72;3.13;;;17.70;99.90;;;;;;5012509;28;20529;-83
2021/08/25 09:06:40;;;;;;;5.35;3.05;;;17.60;99.90;;;;;;5018993;28;20132;-84
2021/08/25 09:09:06;;;;;;;4.85;2.65;;;17.50;99.90;;;;;;5023966;28;20049;-82
2021/08/25 09:11:32;;;;;;;5.38;3.03;;;17.50;99.90;;;;;;5031397;28;20029;-82
2021/08/25 09:14:10;;;;;;;6.30;3.28;;;17.60;99.90;;;;;;5015856;28;20037;-82
2021/08/25 09:16:36;;;;;;;6.13;3.20;;;17.60;99.90;;;;;;5008302;28;20035;-82
2021/08/25 09:19:14;;;;;;;5.63;2.85;;;17.60;99.90;;;;;;5011118;28;20411;-81
2021/08/25 09:21:49;;;;;;;8.07;3.40;;;17.60;99.90;;;;;;5024965;28;20033;-82
2021/08/25 09:24:17;;;;;;;6.45;3.50;;;17.60;99.90;;;;;;5016138;28;20037;-82
2021/08/25 09:27:05;;;;;;;4.38;2.67;;;17.60;99.90;;;;;;5005254;28;20037;-83
2021/08/25 09:29:30;;;;;;;5.68;2.95;;;17.70;99.90;;;;;;5042162;28;20025;-82
2021/08/25 09:31:57;;;;;;;6.38;3.00;;;17.60;99.90;;;;;;4998794;28;20040;-82
2021/08/25 09:34:31;;;;;;;6.88;2.63;;;17.60;99.90;;;;;;5032257;28;20135;-83
2021/08/25 09:37:15;;;;;;;5.93;2.80;;;17.60;99.90;;;;;;5019994;28;20037;-82
2021/08/25 09:39:43;;;;;;;6.70;2.92;;;17.70;99.90;;;;;;5009294;28;20083;-82
2021/08/25 09:42:09;;;;;;;4.88;3.20;;;17.80;99.90;;;;;;5017166;28;20043;-82
2021/08/25 09:44:35;;;;;;;6.32;2.70;;;17.70;99.90;;;;;;5012663;28;20017;-82
2021/08/25 09:47:01;;;;;;;4.38;2.70;;;17.80;99.90;;;;;;5001279;28;20052;-82
2021/08/25 09:49:26;;;;;;;5.95;2.67;;;17.80;99.90;;;;;;5006849;28;20479;-80
2021/08/25 09:51:54;;;;;;;6.82;2.75;;;17.90;99.90;;;;;;5003323;28;20040;-83
2021/08/25 09:54:20;;;;;;;4.13;2.53;;;18.00;99.90;;;;;;5006529;28;20044;-83
2021/08/25 09:56:50;;;;;;;5.70;2.33;;;18.00;99.90;;;;;;4993626;28;20033;-82
2021/08/25 09:59:16;;;;;;;5.10;2.75;;;18.10;99.90;;;;;;4996526;28;20530;-81
2021/08/25 10:01:42;;;;;;;4.40;2.45;;;18.10;99.90;;;;;;5006444;28;20029;-81
2021/08/25 10:04:11;;;;;;;5.53;3.05;;;18.10;99.90;;;;;;5022705;28;20021;-81
2021/08/25 10:06:40;;;;;;;4.88;2.60;;;18.30;99.90;;;;;;5032613;28;20498;-82
2021/08/25 10:09:08;;;;;;;5.57;2.75;;;18.40;99.90;;;;;;4995909;28;20087;-82
2021/08/25 10:11:37;;;;;;;5.82;2.78;;;18.50;99.90;;;;;;5031244;28;20032;-82
2021/08/25 10:14:12;;;;;;;8.55;3.58;;;18.60;99.90;;;;;;5033336;28;20040;-83
2021/08/25 10:16:45;;;;;;;5.95;2.95;;;18.80;99.90;;;;;;5002285;28;20029;-82
2021/08/25 10:19:22;;;;;;;4.75;2.88;;;18.80;99.90;;;;;;5013830;28;20438;-82
2021/08/25 10:21:48;;;;;;;5.20;2.78;;;19.00;99.90;;;;;;5026004;28;20013;-82
2021/08/25 10:24:14;;;;;;;5.45;3.22;;;18.90;99.90;;;;;;5011417;28;20091;-82
2021/08/25 10:26:58;;;;;;;4.63;2.80;;;18.90;99.90;;;;;;5014279;28;20057;-84
2021/08/25 10:29:28;;;;;;;7.97;3.40;;;18.80;99.90;;;;;;5007218;28;20045;-83
2021/08/25 10:31:57;;;;;;;6.82;3.25;;;18.80;99.90;;;;;;5031565;28;20029;-82
2021/08/25 10:34:28;;;;;;;5.78;3.22;;;18.70;99.90;;;;;;5022635;28;20025;-83
2021/08/25 10:37:12;;;;;;;8.48;3.55;;;18.50;99.90;;;;;;5015991;28;20052;-82
2021/08/25 10:39:39;;;;;;;7.68;3.25;;;18.50;99.90;;;;;;5016389;28;20021;-81
2021/08/25 10:42:07;;;;;;;6.30;3.53;;;18.40;99.90;;;;;;5026601;28;20076;-83
2021/08/25 10:44:39;;;;;;;8.52;4.05;;;18.30;99.90;;;;;;5030400;28;20040;-82
2021/08/25 10:47:06;;;;;;;5.82;3.10;;;18.40;99.90;;;;;;5033114;28;20037;-82
2021/08/25 10:49:32;;;;;;;6.50;3.58;;;18.40;99.90;;;;;;4979052;28;20033;-83
2021/08/25 10:52:18;;;;;;;5.78;3.33;;;18.50;99.90;;;;;;5022353;28;20105;-82
2021/08/25 10:54:48;;;;;;;7.80;3.37;;;18.50;99.90;;;;;;5019148;28;20030;-82
2021/08/25 10:57:19;;;;;;;8.25;3.30;;;18.50;99.90;;;;;;5006351;28;20091;-82
2021/08/25 10:59:45;;;;;;;8.02;3.28;;;18.60;99.90;;;;;;4996374;28;20026;-82
2021/08/25 11:02:11;;;;;;;6.50;3.47;;;18.70;99.90;;;;;;5000999;28;20479;-81
2021/08/25 11:04:37;;;;;;;8.13;3.70;;;18.70;99.90;;;;;;5013355;28;20116;-81
2021/08/25 11:07:11;;;;;;;5.35;3.63;;;18.80;99.90;;;;;;5022659;28;20399;-80
2021/08/25 11:09:43;;;;;;;5.32;3.20;;;18.70;99.90;;;;;;5003325;28;20025;-82
2021/08/25 11:12:14;;;;;;;13.18;4.30;;;18.70;99.90;;;;;;5003261;28;20507;-81
2021/08/25 11:14:47;;;;;;;6.50;3.45;;;18.70;99.90;;;;;;5020398;28;20635;-80
2021/08/25 11:17:17;;;;;;;6.32;3.80;;;18.60;99.90;;;;;;5017140;28;20546;-79
2021/08/25 11:19:44;;;;;;;6.18;3.38;;;18.70;99.90;;;;;;5025639;28;20021;-81
2021/08/25 11:22:20;;;;;;;5.38;3.10;;;18.90;99.90;;;;;;5010703;28;20087;-84
2021/08/25 11:24:49;;;;;;;6.38;3.45;;;18.90;99.90;;;;;;5018869;28;20438;-80
2021/08/25 11:27:21;;;;;;;6.20;3.33;;;19.00;99.90;;;;;;5006607;28;20049;-80
2021/08/25 11:30:17;;;;;;;5.45;3.42;;;19.20;99.90;;;;;;5008172;28;20044;-81
2021/08/25 11:32:52;;;;;;;5.45;3.00;;;19.30;99.90;;;;;;4972060;28;20132;-81
2021/08/25 11:35:22;;;;;;;5.82;2.80;;;19.30;99.90;;;;;;5020412;28;20052;-81
2021/08/25 11:37:48;;;;;;;4.72;2.80;;;19.30;99.90;;;;;;5002320;28;20367;-82
2021/08/25 11:40:14;;;;;;;4.20;2.75;;;19.20;99.90;;;;;;5008307;28;20103;-81
2021/08/25 11:42:40;;;;;;;4.80;2.80;;;19.10;99.90;;;;;;5010152;28;20017;-81
2021/08/25 11:45:17;;;;;;;5.28;2.50;;;19.10;99.90;;;;;;5020959;28;20033;-81
2021/08/25 11:47:57;;;;;;;4.57;2.63;;;19.20;99.90;;;;;;5008719;28;20037;-80
2021/08/25 11:50:24;;;;;;;4.72;2.42;;;19.30;99.90;;;;;;5023295;28;20540;-81
2021/08/25 11:52:51;;;;;;;5.15;3.25;;;19.50;99.90;;;;;;5010135;28;20048;-81
2021/08/25 11:55:17;;;;;;;5.72;2.30;;;19.70;99.90;;;;;;5023436;28;20419;-81
2021/08/25 11:57:45;;;;;;;3.25;2.20;;;19.80;99.90;;;;;;5027961;28;20072;-81
2021/08/25 12:00:17;;;;;;;3.53;2.20;;;19.80;99.90;;;;;;5023607;28;20376;-80
2021/08/25 12:02:52;;;;;;;5.88;2.95;;;19.80;99.90;;;;;;5004315;28;20068;-81
2021/08/25 12:05:38;;;;;;;;;;;19.90;99.90;;;;;;5045156;28;20029;-81
2021/08/25 12:08:06;;;;;;;6.00;2.40;;;20.00;99.90;;;;;;5031463;28;19913;-81
2021/08/25 12:10:33;;;;;;;3.75;2.33;;;20.20;99.90;;;;;;5008329;28;20093;-81
2021/08/25 12:12:59;;;;;;;4.07;2.22;;;20.50;99.90;;;;;;5008570;28;20025;-81
2021/08/25 12:15:46;;;;;;;5.10;2.90;;;20.70;99.90;;;;;;5020196;28;20071;-81
2021/08/25 12:18:16;;;;;;;3.38;1.88;;;20.70;95.60;;;;;;5024442;28;20025;-81
2021/08/25 12:20:44;;;;;;;4.30;2.22;;;20.60;98.80;;;;;;5006040;28;20608;-81
2021/08/25 12:23:12;;;;;;;3.33;2.28;;;20.70;98.50;;;;;;5010365;28;20108;-81
2021/08/25 12:25:41;;;;;;;3.08;2.00;;;20.70;99.90;;;;;;5006787;28;20492;-82
2021/08/25 12:28:09;;;;;;;6.93;2.95;;;20.60;96.50;;;;;;5007051;28;20037;-80
2021/08/25 12:30:39;;;;;;;4.38;2.38;;;20.60;95.80;;;;;;5001890;28;20021;-81
2021/08/25 12:33:06;;;;;;;3.63;2.20;;;20.40;99.70;;;;;;5023698;23;20042;-82
2021/08/25 12:35:36;;;;;;;6.22;2.40;;;20.60;98.90;;;;;;4954533;28;20038;-83
2021/08/25 12:38:04;;;;;;;5.03;2.33;;;20.90;99.30;;;;;;4980029;28;20027;-82
2021/08/25 12:40:32;;;;;;;4.22;2.40;;;21.20;99.90;;;;;;4959796;28;20027;-82
2021/08/25 12:42:59;;;;;;;3.80;2.35;;;21.40;99.90;;;;;;4979869;28;20031;-82
2021/08/25 12:45:25;;;;;;;4.47;2.63;;;21.70;99.90;;;;;;4963710;28;20436;-81
2021/08/25 12:47:53;;;;;;;4.18;2.17;;;22.00;97.40;;;;;;4964079;28;20038;-82
2021/08/25 12:50:22;;;;;;;3.78;2.42;;;22.20;96.70;;;;;;4964122;28;20038;-81
2021/08/25 12:52:48;;;;;;;4.05;2.58;;;22.40;95.60;;;;;;4965398;28;20394;-82